Weather at Bolivar Municipal Airport

Public forecast

Using degrees Fahrenheit for public forecast. Weather courtesy of forecast.io.

Closest aviation weather report (METAR) to Bolivar Municipal Airport

Closest report is Springfield Branson National Airport, 21.1 nm (39.1 km) S. Retrieved 2021/01/19 16:52 UTC (58 minutes ago):

KSGF 191652Z 29007KT 10SM FEW005 00/M01 A3037 RMK AO2 SLP293 I1001 T00001006

Closest aviation forecast (TAF) to Bolivar Municipal Airport

Closest forecast is Springfield Branson National Airport, 21.1 nm (39.1 km) S. Retrieved 2021/01/19 12:22 UTC (5 hours ago):

TAF KSGF 191120Z 1912/2012 33004KT 3SM BR OVC005 TEMPO 1912/1915 1SM BR OVC003 FM191500 VRB04KT 6SM BR BKN015 FM191700 31006KT P6SM BKN120 FM200300 28005KT P6SM FEW250